createdAt,value
2018-09-06T00:00:33.220Z,0
2018-09-06T00:01:49.154Z,0
2018-09-06T00:03:05.240Z,0
2018-09-06T00:04:21.388Z,0
2018-09-06T00:05:37.493Z,0
2018-09-06T00:06:53.520Z,0
2018-09-06T00:08:09.484Z,0
2018-09-06T00:09:26.384Z,0
2018-09-06T00:10:42.627Z,0
2018-09-06T00:11:58.696Z,0
2018-09-06T00:13:14.596Z,0
2018-09-06T00:14:30.595Z,0
2018-09-06T00:15:46.591Z,0
2018-09-06T00:17:02.546Z,0
2018-09-06T00:18:18.465Z,0
2018-09-06T00:19:34.517Z,0
2018-09-06T00:20:50.685Z,0
2018-09-06T00:22:06.611Z,0
2018-09-06T00:23:22.515Z,0
2018-09-06T00:24:38.447Z,0
2018-09-06T00:25:54.477Z,0
2018-09-06T00:27:10.526Z,0
2018-09-06T00:28:26.465Z,0
2018-09-06T00:29:42.449Z,0
2018-09-06T00:30:58.571Z,0
2018-09-06T00:32:14.575Z,0
2018-09-06T00:33:30.561Z,0
2018-09-06T00:34:46.527Z,0
2018-09-06T00:36:02.499Z,0
2018-09-06T00:37:18.527Z,0
2018-09-06T00:38:34.472Z,0
2018-09-06T00:39:50.381Z,0
2018-09-06T00:41:06.305Z,0
2018-09-06T00:42:22.205Z,0
2018-09-06T00:45:18.958Z,0
2018-09-06T00:46:34.894Z,0
2018-09-06T00:47:50.797Z,0
2018-09-06T00:49:06.691Z,0
2018-09-06T00:50:23.685Z,0
2018-09-06T00:51:39.730Z,0
2018-09-06T00:52:55.661Z,0
2018-09-06T00:54:11.617Z,0
2018-09-06T00:55:28.642Z,0
2018-09-06T00:56:44.663Z,0
2018-09-06T00:58:00.667Z,0
2018-09-06T00:59:16.648Z,0
2018-09-06T01:00:32.639Z,0
2018-09-06T01:01:48.580Z,0
2018-09-06T01:03:04.496Z,0
2018-09-06T01:04:20.434Z,0
2018-09-06T01:05:36.426Z,0
2018-09-06T01:08:32.928Z,0
2018-09-06T01:09:48.921Z,0
2018-09-06T01:11:04.928Z,0
2018-09-06T01:12:21.051Z,0
2018-09-06T01:13:37.168Z,0
2018-09-06T01:14:53.108Z,0
2018-09-06T01:16:09.048Z,0
2018-09-06T01:17:25.039Z,0
2018-09-06T01:18:41.000Z,0
2018-09-06T01:19:56.974Z,0
2018-09-06T01:21:13.008Z,0
2018-09-06T01:22:28.941Z,0
2018-09-06T01:23:44.860Z,0
2018-09-06T01:25:00.797Z,0
2018-09-06T01:26:16.701Z,0
2018-09-06T01:27:32.706Z,0
2018-09-06T01:28:48.586Z,0
2018-09-06T01:30:04.610Z,0
2018-09-06T01:31:20.643Z,0
2018-09-06T01:32:36.642Z,0
2018-09-06T01:33:52.566Z,0
2018-09-06T01:35:08.505Z,0
2018-09-06T01:36:24.562Z,0
2018-09-06T01:37:40.569Z,0
2018-09-06T01:38:56.524Z,0
2018-09-06T01:40:12.435Z,0
2018-09-06T01:41:28.558Z,0
2018-09-06T01:42:44.638Z,0
2018-09-06T01:44:00.557Z,0
2018-09-06T01:45:16.461Z,0
2018-09-06T01:46:32.382Z,0
2018-09-06T01:47:48.313Z,0
2018-09-06T01:49:04.214Z,0
2018-09-06T01:52:01.007Z,0
2018-09-06T01:53:17.852Z,0
2018-09-06T01:54:33.796Z,0
2018-09-06T01:55:49.844Z,0
2018-09-06T01:57:05.933Z,0
2018-09-06T01:58:21.831Z,0
2018-09-06T01:59:37.733Z,0
2018-09-06T02:00:53.645Z,0
2018-09-06T02:02:09.599Z,0
2018-09-06T02:03:25.539Z,0
2018-09-06T02:04:41.436Z,0
2018-09-06T02:05:57.437Z,0
2018-09-06T02:07:13.377Z,0
2018-09-06T02:08:29.366Z,0
2018-09-06T02:09:45.397Z,0
2018-09-06T02:11:01.468Z,0
2018-09-06T02:12:17.341Z,0
2018-09-06T02:13:33.297Z,0
2018-09-06T02:14:49.256Z,0
2018-09-06T02:16:05.176Z,0
2018-09-06T02:17:21.116Z,0
2018-09-06T02:18:37.202Z,0
2018-09-06T02:19:53.192Z,0
2018-09-06T02:21:09.164Z,0
2018-09-06T02:22:25.092Z,0
2018-09-06T02:23:41.137Z,0
2018-09-06T02:24:57.115Z,0
2018-09-06T02:26:13.091Z,0
2018-09-06T02:27:28.983Z,0
2018-09-06T02:28:44.926Z,0
2018-09-06T02:30:00.883Z,0
2018-09-06T02:31:16.816Z,0
2018-09-06T02:32:32.947Z,0
2018-09-06T02:33:48.897Z,0
2018-09-06T02:35:04.786Z,0
2018-09-06T02:36:20.753Z,0
2018-09-06T02:37:36.731Z,0
2018-09-06T02:38:52.627Z,0
2018-09-06T02:40:08.521Z,0
2018-09-06T02:41:24.591Z,0
2018-09-06T02:42:40.684Z,0
2018-09-06T02:43:56.694Z,0
2018-09-06T02:45:12.576Z,0
2018-09-06T02:46:28.491Z,0
2018-09-06T02:47:44.456Z,0
2018-09-06T02:49:00.414Z,0
2018-09-06T02:50:16.458Z,0
2018-09-06T02:51:32.476Z,0
2018-09-06T02:52:48.421Z,0
2018-09-06T02:54:04.359Z,0
2018-09-06T02:55:20.281Z,0
2018-09-06T02:56:36.253Z,0
2018-09-06T02:57:52.156Z,0
2018-09-06T02:59:08.119Z,0
2018-09-06T03:00:24.126Z,0
2018-09-06T03:01:40.157Z,0
2018-09-06T03:02:56.120Z,0
2018-09-06T03:04:12.062Z,0
2018-09-06T03:05:28.035Z,0
2018-09-06T03:06:43.945Z,0
2018-09-06T03:07:59.877Z,0
2018-09-06T03:09:15.840Z,0
2018-09-06T03:10:31.784Z,0
2018-09-06T03:11:47.739Z,0
2018-09-06T03:13:03.739Z,0
2018-09-06T03:14:19.663Z,0
2018-09-06T03:15:35.587Z,0
2018-09-06T03:16:51.520Z,0
2018-09-06T03:18:07.524Z,0
2018-09-06T03:19:23.412Z,0
2018-09-06T03:20:39.284Z,0
2018-09-06T03:21:55.220Z,0
2018-09-06T03:23:11.220Z,0
2018-09-06T03:24:27.174Z,0
2018-09-06T03:25:43.080Z,0
2018-09-06T03:26:59.201Z,0
2018-09-06T03:28:15.203Z,0
2018-09-06T03:29:31.143Z,0
2018-09-06T03:30:47.088Z,0
2018-09-06T03:32:02.998Z,0
2018-09-06T03:33:18.880Z,0
2018-09-06T03:34:34.802Z,0
2018-09-06T03:35:50.746Z,0
2018-09-06T03:37:06.629Z,0
2018-09-06T03:38:22.846Z,0
2018-09-06T03:39:38.953Z,0
2018-09-06T03:40:54.895Z,0
2018-09-06T03:42:10.854Z,0
2018-09-06T03:43:26.796Z,0
2018-09-06T03:44:42.819Z,0
2018-09-06T03:45:58.998Z,0
2018-09-06T03:47:14.970Z,0
2018-09-06T03:48:30.889Z,0
2018-09-06T03:49:46.810Z,0
2018-09-06T03:51:02.723Z,0
2018-09-06T03:52:18.837Z,0
2018-09-06T03:53:35.717Z,0
2018-09-06T03:54:51.598Z,0
2018-09-06T03:57:47.910Z,0
2018-09-06T03:59:03.802Z,0
2018-09-06T04:00:20.947Z,0
2018-09-06T04:01:36.960Z,0
2018-09-06T04:02:52.908Z,0
2018-09-06T04:04:08.849Z,0
2018-09-06T04:05:24.842Z,0
2018-09-06T04:06:40.975Z,0
2018-09-06T04:07:56.965Z,0
2018-09-06T04:09:12.895Z,0
2018-09-06T04:10:28.885Z,0
2018-09-06T04:11:44.835Z,0
2018-09-06T04:13:00.799Z,0
2018-09-06T04:14:16.814Z,0
2018-09-06T04:15:32.815Z,0
2018-09-06T04:16:48.875Z,0
2018-09-06T04:18:04.903Z,0
2018-09-06T04:21:01.434Z,0
2018-09-06T04:22:17.354Z,1
2018-09-06T04:23:33.377Z,0
2018-09-06T04:24:49.427Z,1
2018-09-06T04:26:05.388Z,1
2018-09-06T04:27:21.338Z,1
2018-09-06T04:28:37.409Z,2
2018-09-06T04:29:53.356Z,3
2018-09-06T04:31:09.334Z,3
2018-09-06T04:32:25.229Z,3
2018-09-06T04:33:41.226Z,5
2018-09-06T04:34:57.124Z,5
2018-09-06T04:36:13.206Z,6
2018-09-06T04:37:29.246Z,8
2018-09-06T04:38:45.180Z,9
2018-09-06T04:40:01.100Z,10
2018-09-06T04:41:17.004Z,13
2018-09-06T04:42:32.937Z,15
2018-09-06T04:43:49.200Z,17
2018-09-06T04:45:05.032Z,20
2018-09-06T04:46:21.059Z,23
2018-09-06T04:47:37.238Z,27
2018-09-06T04:48:53.355Z,30
2018-09-06T04:50:09.393Z,34
2018-09-06T04:53:07.279Z,44
2018-09-06T04:54:24.183Z,48
2018-09-06T04:55:40.347Z,52
2018-09-06T04:56:56.351Z,57
2018-09-06T04:58:12.356Z,61
2018-09-06T04:59:28.353Z,66
2018-09-06T05:00:44.289Z,70
2018-09-06T05:03:40.936Z,74
2018-09-06T05:04:56.888Z,83
2018-09-06T05:06:12.803Z,86
2018-09-06T05:07:28.778Z,90
2018-09-06T05:08:44.732Z,94
2018-09-06T05:10:00.845Z,98
2018-09-06T05:11:16.900Z,102
2018-09-06T05:12:32.803Z,106
2018-09-06T05:13:48.804Z,111
2018-09-06T05:15:04.706Z,117
2018-09-06T05:16:20.656Z,124
2018-09-06T05:17:36.566Z,133
2018-09-06T05:18:52.713Z,141
2018-09-06T05:20:08.773Z,153
2018-09-06T05:21:24.877Z,163
2018-09-06T05:22:40.809Z,173
2018-09-06T05:23:56.773Z,181
2018-09-06T05:25:12.756Z,189
2018-09-06T05:28:09.633Z,211
2018-09-06T05:29:25.635Z,217
2018-09-06T05:30:42.587Z,224
2018-09-06T05:31:58.543Z,234
2018-09-06T05:33:14.630Z,242
2018-09-06T05:34:30.728Z,252
2018-09-06T05:35:46.711Z,263
2018-09-06T05:37:02.680Z,274
2018-09-06T05:38:18.695Z,290
2018-09-06T05:39:34.787Z,306
2018-09-06T05:40:50.827Z,319
2018-09-06T05:42:06.763Z,335
2018-09-06T05:43:22.806Z,351
2018-09-06T05:44:38.753Z,363
2018-09-06T05:47:35.604Z,394
2018-09-06T05:48:51.541Z,413
2018-09-06T05:50:07.490Z,429
2018-09-06T05:51:23.515Z,439
2018-09-06T05:52:39.472Z,450
2018-09-06T05:53:55.367Z,455
2018-09-06T05:55:11.336Z,463
2018-09-06T05:56:27.258Z,470
2018-09-06T05:57:43.191Z,480
2018-09-06T05:58:59.133Z,485
2018-09-06T06:00:15.084Z,489
2018-09-06T06:01:31.012Z,492
2018-09-06T06:02:47.057Z,498
2018-09-06T06:04:03.081Z,507
2018-09-06T06:05:19.133Z,508
2018-09-06T06:06:35.101Z,519
2018-09-06T06:07:51.036Z,538
2018-09-06T06:09:07.013Z,560
2018-09-06T06:10:23.036Z,574
2018-09-06T06:11:38.997Z,581
2018-09-06T06:12:54.925Z,591
2018-09-06T06:14:10.835Z,603
2018-09-06T06:15:27.730Z,614
2018-09-06T06:16:43.659Z,621
2018-09-06T06:17:59.674Z,632
2018-09-06T06:20:56.324Z,655
2018-09-06T06:22:12.285Z,666
2018-09-06T06:23:28.226Z,673
2018-09-06T06:24:44.376Z,687
2018-09-06T06:26:00.572Z,697
2018-09-06T06:27:16.599Z,706
2018-09-06T06:28:32.621Z,716
2018-09-06T06:29:48.582Z,723
2018-09-06T06:31:04.445Z,732
2018-09-06T06:32:20.435Z,745
2018-09-06T06:33:36.312Z,756
2018-09-06T06:34:52.275Z,770
2018-09-06T06:36:09.284Z,777
2018-09-06T06:37:25.187Z,790
2018-09-06T06:38:41.128Z,800
2018-09-06T06:39:57.089Z,811
2018-09-06T06:41:13.112Z,819
2018-09-06T06:42:29.053Z,838
2018-09-06T06:43:45.042Z,848
2018-09-06T06:45:01.165Z,864
2018-09-06T06:46:17.066Z,872
2018-09-06T06:49:13.490Z,883
2018-09-06T06:50:29.561Z,913
2018-09-06T06:51:45.472Z,925
2018-09-06T06:53:01.365Z,946
2018-09-06T06:54:18.301Z,975
2018-09-06T06:55:34.292Z,1014
2018-09-06T06:56:50.194Z,1071
2018-09-06T06:58:06.180Z,1091
2018-09-06T06:59:22.113Z,1100
2018-09-06T07:00:38.063Z,1104
2018-09-06T07:01:53.965Z,1123
2018-09-06T07:03:09.938Z,1151
2018-09-06T07:04:25.864Z,1141
2018-09-06T07:05:41.943Z,1088
2018-09-06T07:06:58.078Z,1055
2018-09-06T07:08:14.076Z,1056
2018-09-06T07:09:29.997Z,1070
2018-09-06T07:10:45.940Z,1087
2018-09-06T07:12:01.848Z,1116
2018-09-06T07:13:17.754Z,1131
2018-09-06T07:14:33.653Z,1153
2018-09-06T07:15:49.812Z,1212
2018-09-06T07:17:05.845Z,1235
2018-09-06T07:20:02.531Z,1192
2018-09-06T07:21:18.459Z,1201
2018-09-06T07:22:34.460Z,1226
2018-09-06T07:23:50.635Z,1233
2018-09-06T07:25:06.649Z,1245
2018-09-06T07:26:22.645Z,1254
2018-09-06T07:27:38.557Z,1260
2018-09-06T07:28:54.519Z,1266
2018-09-06T07:30:10.484Z,1278
2018-09-06T07:31:26.592Z,1272
2018-09-06T07:32:42.609Z,1325
2018-09-06T07:33:58.654Z,1344
2018-09-06T07:35:14.805Z,1365
2018-09-06T07:36:30.856Z,1370
2018-09-06T07:37:46.810Z,1383
2018-09-06T07:39:02.706Z,1400
2018-09-06T07:40:18.631Z,1417
2018-09-06T07:41:34.648Z,1443
2018-09-06T07:42:50.592Z,1463
2018-09-06T07:44:06.630Z,1482
2018-09-06T07:45:22.675Z,1501
2018-09-06T07:46:38.769Z,1561
2018-09-06T07:47:54.686Z,1698
2018-09-06T07:49:10.595Z,1847
2018-09-06T07:50:26.494Z,1924
2018-09-06T07:51:43.567Z,1939
2018-09-06T07:52:59.428Z,1944
2018-09-06T07:54:15.491Z,1994
2018-09-06T07:55:31.434Z,2024
2018-09-06T07:56:47.365Z,1993
2018-09-06T07:59:43.984Z,1946
2018-09-06T08:01:00.029Z,1990
2018-09-06T08:02:16.059Z,2070
2018-09-06T08:03:31.955Z,2104
2018-09-06T08:04:47.929Z,2106
2018-09-06T08:06:03.876Z,2122
2018-09-06T08:07:19.902Z,2139
2018-09-06T08:08:36.831Z,2158
2018-09-06T08:09:52.827Z,2176
2018-09-06T08:11:08.800Z,2177
2018-09-06T08:12:24.720Z,2190
2018-09-06T08:13:40.648Z,2200
2018-09-06T08:14:56.699Z,2194
2018-09-06T08:16:12.739Z,2226
2018-09-06T08:17:28.721Z,2227
2018-09-06T08:18:44.651Z,2243
2018-09-06T08:20:00.682Z,2240
2018-09-06T08:21:16.624Z,2252
2018-09-06T08:22:32.573Z,2282
2018-09-06T08:23:48.611Z,2309
2018-09-06T08:25:04.628Z,2289
2018-09-06T08:26:20.612Z,2318
2018-09-06T08:30:33.283Z,2348
2018-09-06T08:31:49.292Z,2360
2018-09-06T08:33:05.314Z,2347
2018-09-06T08:34:21.232Z,2379
2018-09-06T08:35:37.298Z,2377
2018-09-06T08:36:53.279Z,2421
2018-09-06T08:38:09.121Z,2396
2018-09-06T08:39:25.048Z,2405
2018-09-06T08:40:40.974Z,2378
2018-09-06T08:41:56.994Z,2384
2018-09-06T08:43:13.493Z,2410
2018-09-06T08:44:29.586Z,2429
2018-09-06T08:45:45.499Z,2443
2018-09-06T08:47:01.429Z,2460
2018-09-06T08:48:17.435Z,2478
2018-09-06T08:49:33.377Z,2496
2018-09-06T08:50:49.477Z,2495
2018-09-06T08:52:05.469Z,2489
2018-09-06T08:53:21.399Z,2459
2018-09-06T08:54:37.349Z,2453
2018-09-06T08:55:53.274Z,2398
2018-09-06T08:57:09.229Z,2317
2018-09-06T08:58:25.190Z,2291
2018-09-06T08:59:41.251Z,2362
2018-09-06T09:00:57.293Z,2430
2018-09-06T09:02:13.432Z,2443
2018-09-06T09:03:29.239Z,2498
2018-09-06T09:04:45.337Z,2617
2018-09-06T09:06:01.204Z,2634
2018-09-06T09:07:17.095Z,2655
2018-09-06T09:08:33.167Z,2634
2018-09-06T09:09:49.055Z,2632
2018-09-06T09:11:04.965Z,2615
2018-09-06T09:12:21.030Z,2631
2018-09-06T09:13:37.043Z,2601
2018-09-06T09:14:53.113Z,2620
2018-09-06T09:16:09.184Z,2582
2018-09-06T09:17:25.153Z,2457
2018-09-06T09:18:41.126Z,2638
2018-09-06T09:19:57.019Z,2625
2018-09-06T09:21:12.988Z,2618
2018-09-06T09:22:29.148Z,2637
2018-09-06T09:23:44.962Z,2666
2018-09-06T09:25:00.957Z,2685
2018-09-06T09:26:17.004Z,2716
2018-09-06T09:27:32.992Z,2728
2018-09-06T09:28:48.897Z,2740
2018-09-06T09:30:04.946Z,2742
2018-09-06T09:31:20.863Z,2821
2018-09-06T09:32:36.918Z,2939
2018-09-06T09:33:52.930Z,2972
2018-09-06T09:35:08.844Z,3010
2018-09-06T09:36:24.817Z,3007
2018-09-06T09:37:40.688Z,3045
2018-09-06T09:38:56.727Z,3054
2018-09-06T09:40:12.645Z,3081
2018-09-06T09:41:28.639Z,3131
2018-09-06T09:42:44.681Z,3158
2018-09-06T09:44:00.646Z,3148
2018-09-06T09:45:16.593Z,3161
2018-09-06T09:48:33.498Z,3254
2018-09-06T09:49:49.539Z,3317
2018-09-06T09:51:05.535Z,3368
2018-09-06T09:53:24.015Z,3515
2018-09-06T09:54:40.152Z,3649
2018-09-06T09:55:56.118Z,3634
2018-09-06T09:58:52.604Z,3677
2018-09-06T10:00:08.564Z,3722
2018-09-06T10:01:24.541Z,3572
2018-09-06T10:02:40.541Z,3809
2018-09-06T10:03:56.533Z,3768
2018-09-06T10:05:12.571Z,3754
2018-09-06T10:06:28.734Z,3807
2018-09-06T10:07:44.582Z,3571
2018-09-06T10:09:00.513Z,3657
2018-09-06T10:10:16.448Z,3726
2018-09-06T10:11:32.398Z,3748
2018-09-06T10:12:48.315Z,3701
2018-09-06T10:14:04.210Z,3465
2018-09-06T10:15:21.271Z,3040
2018-09-06T10:16:37.271Z,3556
2018-09-06T10:17:53.210Z,3348
2018-09-06T10:19:09.120Z,3135
2018-09-06T10:20:25.232Z,2947
2018-09-06T10:21:41.163Z,3337
2018-09-06T10:22:57.188Z,3446
2018-09-06T10:24:13.265Z,3461
2018-09-06T10:25:29.176Z,3490
2018-09-06T10:26:45.126Z,3509
2018-09-06T10:28:01.067Z,3498
2018-09-06T10:29:17.078Z,3493
2018-09-06T10:30:33.045Z,3459
2018-09-06T10:31:48.989Z,3422
2018-09-06T10:33:04.957Z,3350
2018-09-06T10:34:20.912Z,3399
2018-09-06T10:35:36.870Z,3435
2018-09-06T10:36:52.806Z,3449
2018-09-06T10:38:08.747Z,3472
2018-09-06T10:39:24.890Z,3497
2018-09-06T10:40:40.728Z,3442
2018-09-06T10:41:56.636Z,3462
2018-09-06T10:43:12.673Z,3408
2018-09-06T10:44:28.630Z,3390
2018-09-06T10:45:44.601Z,3377
2018-09-06T10:47:00.582Z,3338
2018-09-06T10:48:16.548Z,3345
2018-09-06T10:49:32.515Z,3312
2018-09-06T10:50:48.530Z,3245
2018-09-06T10:52:04.455Z,3286
2018-09-06T10:53:20.365Z,3248
2018-09-06T10:54:36.260Z,3276
2018-09-06T10:55:52.202Z,3267
2018-09-06T10:57:08.088Z,3273
2018-09-06T10:58:24.042Z,3250
2018-09-06T10:59:39.998Z,3237
2018-09-06T11:00:55.953Z,3236
2018-09-06T11:02:11.900Z,3239
2018-09-06T11:03:27.948Z,3239
2018-09-06T11:04:43.868Z,3226
2018-09-06T11:05:59.867Z,3207
2018-09-06T11:07:15.760Z,3226
2018-09-06T11:08:31.632Z,3223
2018-09-06T11:09:48.525Z,3230
2018-09-06T11:11:04.537Z,3222
2018-09-06T11:12:20.433Z,3217
2018-09-06T11:13:36.322Z,3209
2018-09-06T11:14:52.221Z,3204
2018-09-06T11:16:08.165Z,3198
2018-09-06T11:17:24.054Z,3187
2018-09-06T11:18:39.947Z,3190
2018-09-06T11:19:55.983Z,3198
2018-09-06T11:21:12.021Z,3226
2018-09-06T11:22:28.248Z,3209
2018-09-06T11:23:43.782Z,3180
2018-09-06T11:24:59.819Z,3222
2018-09-06T11:29:12.787Z,3222
2018-09-06T11:30:28.654Z,3178
2018-09-06T11:31:44.635Z,3236
2018-09-06T11:34:41.037Z,3242
2018-09-06T11:35:56.951Z,3170
2018-09-06T11:37:13.042Z,3167
2018-09-06T11:38:29.003Z,3179
2018-09-06T11:39:44.919Z,3153
2018-09-06T11:41:00.952Z,3153
2018-09-06T11:42:16.875Z,3158
2018-09-06T11:43:32.819Z,3142
2018-09-06T11:44:48.809Z,3148
2018-09-06T11:46:04.853Z,3135
2018-09-06T11:47:21.006Z,3153
2018-09-06T11:48:36.769Z,3145
2018-09-06T11:49:52.711Z,3189
2018-09-06T11:51:08.704Z,3206
2018-09-06T11:52:24.631Z,3228
2018-09-06T11:55:21.501Z,2521
2018-09-06T11:56:38.423Z,2649
2018-09-06T11:57:54.378Z,2666
2018-09-06T11:59:10.319Z,3199
2018-09-06T12:00:26.334Z,3278
2018-09-06T12:01:42.299Z,3376
2018-09-06T12:02:58.217Z,3367
2018-09-06T12:04:14.242Z,3353
2018-09-06T12:05:30.185Z,3084
2018-09-06T12:06:46.198Z,2566
2018-09-06T12:08:02.136Z,2953
2018-09-06T12:09:18.159Z,3330
2018-09-06T12:10:34.168Z,3289
2018-09-06T12:11:50.115Z,3298
2018-09-06T12:13:06.052Z,3292
2018-09-06T12:14:21.996Z,3245
2018-09-06T12:15:37.991Z,3222
2018-09-06T12:16:54.043Z,3203
2018-09-06T12:18:09.988Z,3230
2018-09-06T12:19:26.026Z,3227
2018-09-06T12:20:41.944Z,3241
2018-09-06T12:21:57.903Z,3214
2018-09-06T12:23:13.956Z,3230
2018-09-06T12:24:30.078Z,3211
2018-09-06T12:25:46.499Z,3213
2018-09-06T12:27:02.465Z,3221
2018-09-06T12:28:18.429Z,3183
2018-09-06T12:29:34.413Z,3237
2018-09-06T12:30:51.640Z,3246
2018-09-06T12:32:08.006Z,3236
2018-09-06T12:33:24.862Z,3283
2018-09-06T12:34:41.840Z,3267
2018-09-06T12:35:57.962Z,3290
2018-09-06T12:37:13.891Z,3229
2018-09-06T12:38:29.887Z,3191
2018-09-06T12:39:45.874Z,3224
2018-09-06T12:41:01.842Z,3227
2018-09-06T12:42:17.840Z,3282
2018-09-06T12:43:33.844Z,3304
2018-09-06T12:44:49.805Z,3297
2018-09-06T12:46:05.828Z,3312
2018-09-06T12:47:21.794Z,3333
2018-09-06T12:48:38.531Z,3334
2018-09-06T12:49:54.959Z,3342
2018-09-06T12:51:10.964Z,3339
2018-09-06T12:52:27.585Z,3376
2018-09-06T12:53:44.390Z,3407
2018-09-06T12:55:00.923Z,3444
2018-09-06T12:56:17.495Z,3417
2018-09-06T12:57:34.474Z,3442
2018-09-06T12:58:50.580Z,3406
2018-09-06T13:00:06.557Z,3489
2018-09-06T13:01:22.691Z,3313
2018-09-06T13:02:38.598Z,3152
2018-09-06T13:03:54.844Z,3173
2018-09-06T13:05:11.456Z,2996
2018-09-06T13:06:27.533Z,3082
2018-09-06T13:07:43.465Z,2904
2018-09-06T13:08:59.488Z,2859
2018-09-06T13:10:15.522Z,3630
2018-09-06T13:11:31.434Z,3695
2018-09-06T13:12:47.426Z,3776
2018-09-06T13:14:03.499Z,3854
2018-09-06T13:15:19.448Z,3958
2018-09-06T13:16:35.492Z,3345
2018-09-06T13:17:51.433Z,2466
2018-09-06T13:19:07.428Z,2211
2018-09-06T13:20:23.394Z,2081
2018-09-06T13:21:39.386Z,2021
2018-09-06T13:22:55.410Z,1983
2018-09-06T13:24:11.563Z,1943
2018-09-06T13:25:27.565Z,1961
2018-09-06T13:26:43.569Z,1948
2018-09-06T13:27:59.553Z,1875
2018-09-06T13:29:15.594Z,1930
2018-09-06T13:30:32.548Z,1868
2018-09-06T13:31:48.498Z,1897
2018-09-06T13:33:04.465Z,1874
2018-09-06T13:34:20.455Z,1852
2018-09-06T13:35:36.479Z,1796
2018-09-06T13:36:52.434Z,1802
2018-09-06T13:38:08.433Z,1939
2018-09-06T13:39:24.640Z,2277
2018-09-06T13:40:40.684Z,2900
2018-09-06T13:41:56.990Z,2272
2018-09-06T13:43:12.958Z,2067
2018-09-06T13:44:29.235Z,2106
2018-09-06T13:45:45.793Z,2460
2018-09-06T13:47:02.929Z,1988
2018-09-06T13:48:19.113Z,1845
2018-09-06T13:49:35.194Z,1740
2018-09-06T13:50:51.117Z,1694
2018-09-06T13:52:07.274Z,1658
2018-09-06T13:53:23.240Z,1653
2018-09-06T13:56:19.852Z,1491
2018-09-06T13:59:17.274Z,1492
2018-09-06T14:00:33.273Z,1566
2018-09-06T14:01:49.621Z,1660
2018-09-06T14:03:05.754Z,1801
2018-09-06T14:04:21.851Z,1904
2018-09-06T14:05:37.783Z,1909
2018-09-06T14:06:53.758Z,1766
2018-09-06T14:08:09.737Z,1750
2018-09-06T14:09:25.644Z,1643
2018-09-06T14:10:41.702Z,1550
2018-09-06T14:11:57.715Z,1485
2018-09-06T14:13:13.776Z,1422
2018-09-06T14:14:29.736Z,1354
2018-09-06T14:15:45.717Z,1307
2018-09-06T14:17:01.705Z,1262
2018-09-06T14:18:17.706Z,1218
2018-09-06T14:19:33.634Z,1175
2018-09-06T14:20:49.638Z,1143
2018-09-06T14:23:46.525Z,1135
2018-09-06T14:25:02.735Z,1130
2018-09-06T14:26:18.906Z,1122
2018-09-06T14:27:34.847Z,1121
2018-09-06T14:28:50.793Z,1129
2018-09-06T14:30:06.795Z,1138
2018-09-06T14:31:22.687Z,1182
2018-09-06T14:32:38.640Z,1201
2018-09-06T14:33:54.646Z,1221
2018-09-06T14:35:10.708Z,1216
2018-09-06T14:36:26.820Z,1222
2018-09-06T14:37:42.802Z,1209
2018-09-06T14:38:58.893Z,1203
2018-09-06T14:40:14.794Z,1184
2018-09-06T14:41:30.804Z,1180
2018-09-06T14:42:46.847Z,1203
2018-09-06T14:44:02.892Z,1248
2018-09-06T14:45:18.822Z,1292
2018-09-06T14:46:34.848Z,1259
2018-09-06T14:53:08.198Z,1145
2018-09-06T14:54:24.247Z,1112
2018-09-06T14:55:40.233Z,1144
2018-09-06T14:56:56.287Z,1180
2018-09-06T14:58:30.663Z,1237
2018-09-06T14:59:46.688Z,1277
2018-09-06T15:01:02.858Z,1334
2018-09-06T15:02:18.852Z,1390
2018-09-06T15:03:35.106Z,1440
2018-09-06T15:04:51.200Z,1456
2018-09-06T15:06:07.334Z,1473
2018-09-06T15:07:23.504Z,1479
2018-09-06T15:08:39.673Z,1506
2018-09-06T15:09:55.839Z,1565
2018-09-06T15:11:12.037Z,1604
2018-09-06T15:12:45.959Z,1625
2018-09-06T15:14:02.002Z,1648
2018-09-06T15:15:17.916Z,1607
2018-09-06T15:16:34.033Z,1614
2018-09-06T15:20:46.947Z,1584
2018-09-06T15:22:20.912Z,1416
2018-09-06T15:25:00.317Z,1330
2018-09-06T15:26:34.589Z,1413
2018-09-06T15:29:32.290Z,1522
2018-09-06T15:31:06.432Z,1439
2018-09-06T15:32:22.737Z,2312
2018-09-06T15:33:39.121Z,2762
2018-09-06T15:34:55.161Z,8226
2018-09-06T15:36:11.351Z,11504
2018-09-06T15:41:45.149Z,8205
2018-09-06T15:43:19.126Z,1829
2018-09-06T15:44:35.161Z,1618
2018-09-06T15:45:51.199Z,1347
2018-09-06T15:47:07.207Z,1024
2018-09-06T15:48:42.065Z,943
2018-09-06T15:49:58.223Z,883
2018-09-06T15:51:32.138Z,788
2018-09-06T15:52:48.140Z,737
2018-09-06T15:54:22.069Z,712
2018-09-06T15:55:38.215Z,692
2018-09-06T15:56:54.263Z,682
2018-09-06T15:58:10.412Z,677
2018-09-06T15:59:45.410Z,672
2018-09-06T16:01:01.481Z,656
2018-09-06T16:02:36.420Z,639
2018-09-06T16:04:10.262Z,632
2018-09-06T16:05:26.458Z,637
2018-09-06T16:06:42.433Z,649
2018-09-06T16:07:58.543Z,639
2018-09-06T16:09:32.409Z,632
2018-09-06T16:11:06.328Z,614
2018-09-06T16:12:22.454Z,614
2018-09-06T16:13:57.258Z,562
2018-09-06T16:15:13.499Z,520
2018-09-06T16:16:29.579Z,509
2018-09-06T16:17:45.742Z,513
2018-09-06T16:19:01.724Z,513
2018-09-06T16:20:17.842Z,507
2018-09-06T16:21:33.854Z,497
2018-09-06T16:22:49.876Z,522
2018-09-06T16:24:24.842Z,537
2018-09-06T16:25:59.859Z,491
2018-09-06T16:27:15.799Z,471
2018-09-06T16:28:31.821Z,450
2018-09-06T16:29:47.883Z,420
2018-09-06T16:31:03.917Z,404
2018-09-06T16:32:19.900Z,387
2018-09-06T16:33:35.932Z,345
2018-09-06T16:34:52.015Z,317
2018-09-06T16:36:26.981Z,298
2018-09-06T16:37:42.977Z,285
2018-09-06T16:38:58.976Z,263
2018-09-06T16:40:15.020Z,243
2018-09-06T16:41:31.013Z,226
2018-09-06T16:42:46.994Z,212
2018-09-06T16:44:03.062Z,202
2018-09-06T16:46:59.980Z,179
2018-09-06T16:48:16.067Z,162
2018-09-06T16:49:32.241Z,149
2018-09-06T16:51:06.268Z,138
2018-09-06T16:52:22.314Z,135
2018-09-06T16:53:38.304Z,130
2018-09-06T16:54:54.286Z,126
2018-09-06T16:56:10.266Z,121
2018-09-06T16:57:26.274Z,110
2018-09-06T16:58:42.220Z,100
2018-09-06T16:59:58.269Z,95
2018-09-06T17:01:14.334Z,86
2018-09-06T17:02:49.333Z,85
2018-09-06T17:04:05.412Z,80
2018-09-06T17:05:21.674Z,74
2018-09-06T17:06:37.797Z,69
2018-09-06T17:07:53.937Z,64
2018-09-06T17:09:27.821Z,58
2018-09-06T17:10:43.840Z,53
2018-09-06T17:11:59.857Z,48
2018-09-06T17:13:33.825Z,43
2018-09-06T17:15:08.806Z,38
2018-09-06T17:16:24.821Z,34
2018-09-06T17:17:58.832Z,30
2018-09-06T17:19:14.920Z,28
2018-09-06T17:20:30.925Z,25
2018-09-06T17:21:47.200Z,23
2018-09-06T17:23:03.277Z,22
2018-09-06T17:24:19.566Z,20
2018-09-06T17:25:35.606Z,18
2018-09-06T17:26:51.640Z,17
2018-09-06T17:28:07.630Z,16
2018-09-06T17:29:23.955Z,15
2018-09-06T17:30:58.840Z,14
2018-09-06T17:32:33.764Z,12
2018-09-06T17:33:49.786Z,12
2018-09-06T17:35:05.810Z,11
2018-09-06T17:36:40.727Z,10
2018-09-06T17:39:30.612Z,7
2018-09-06T17:40:46.583Z,7
2018-09-06T17:42:02.777Z,6
2018-09-06T17:43:18.773Z,5
2018-09-06T17:44:34.975Z,4
2018-09-06T17:45:51.131Z,4
2018-09-06T17:47:08.132Z,4
2018-09-06T17:48:24.159Z,3
2018-09-06T17:49:40.340Z,3
2018-09-06T17:50:56.410Z,3
2018-09-06T17:52:12.508Z,2
2018-09-06T17:53:28.637Z,2
2018-09-06T17:54:44.764Z,2
2018-09-06T17:56:00.852Z,2
2018-09-06T17:58:35.015Z,1
2018-09-06T17:59:51.105Z,1
2018-09-06T18:01:25.257Z,1
2018-09-06T18:02:41.299Z,0
2018-09-06T18:04:15.376Z,0
2018-09-06T18:05:31.763Z,1
2018-09-06T18:06:48.838Z,1
2018-09-06T18:08:05.029Z,0
2018-09-06T18:10:55.235Z,0
2018-09-06T18:12:11.244Z,0
2018-09-06T18:13:27.443Z,0
2018-09-06T18:14:43.526Z,0
2018-09-06T18:15:59.771Z,0
2018-09-06T18:17:15.816Z,0
2018-09-06T18:18:49.952Z,0
2018-09-06T18:20:06.034Z,0
2018-09-06T18:21:22.117Z,0
2018-09-06T18:22:38.428Z,0
2018-09-06T18:24:13.371Z,0
2018-09-06T20:25:08.732Z,0
2018-09-06T20:26:42.683Z,0
2018-09-06T20:27:58.654Z,0
2018-09-06T20:31:06.499Z,0
2018-09-06T20:32:22.498Z,0
2018-09-06T20:33:38.602Z,0
2018-09-06T20:34:54.737Z,0
2018-09-06T20:37:44.702Z,0
2018-09-06T20:39:00.712Z,0
2018-09-06T20:40:16.671Z,0
2018-09-06T20:41:32.786Z,0
2018-09-06T20:43:06.725Z,0
2018-09-06T20:44:22.705Z,0
2018-09-06T20:47:12.621Z,0
2018-09-06T20:48:46.529Z,0
2018-09-06T20:50:02.549Z,0
2018-09-06T20:51:18.587Z,0
2018-09-06T20:52:34.745Z,0